航空気象通報

ウインドサーファーのための航空気象通報による風予報です。

5/31-6/2の航空気象通報

2015年05月31日 23時01分00秒 | TAF

羽田空港
TAF RJTT 311105Z 3112/0118 07010KT 9999 FEW030
BECMG 0106/0109 14010KT
日本時間31日21時-1日15時:070度から10ノットの風
15-18時:風が変化
18時-2日03時:140度から10ノットの風

静岡空港
TAF RJNS 311105Z 3112/0118 04004KT 9999 FEW030
BECMG 0100/0103 14010KT
BECMG 0109/0112 28004KT
日本時間31日21時-1日09時:040度から4ノットの風
09-12時:風が変化
12-18時:140度から10ノットの風
18-21時:風が変化
21時-2日03時:280度から4ノットの風

福岡空港
TAF RJFF 311105Z 3112/0118 33005KT 9999 FEW030
BECMG 3112/3114 15003KT
BECMG 0100/0103 32010KT
BECMG 0112/0115 14005KT
日本時間31日21時:330度から5ノットの風
21-23時:風が変化
23時-1日09時:150度から5ノットの風
09-12時:風が変化
12-21時:320度から10ノットの風
21時-2日03時:140度から5ノットの風

那覇空港
TAF ROAH 311113Z 3112/0118 03005KT 9999 FEW008 BKN010
BECMG 3116/3118 16005KT
TEMPO 3118/3121 4000 BR FEW006 BKN008
TEMPO 3121/0103 4000 SHRA FEW006 BKN008 FEW020CB
日本時間31日21時-1日01時:030度から5ノットの風
01-03時:風が変化
03時-2日03時:160度から5ノットの風

但し、1日06-12時の間:ときどき

石垣空港
TAF ROIG 311117Z 3112/0118 07006KT 9999 FEW010 BKN025
BECMG 0100/0103 20008KT
日本時間31日21時-1日09時:070度から6ノットの風
09-12時:風が変化
18時-2日03時:200度から8ノットの風

マウイのカフルイ空港
PHOG 311120Z 3112/0112 04009KT P6SM VCSH SCT035 BKN050
FM312000 04012G19KT P6SM VCSH SCT035 BKN050
FM010500 04010KT P6SM SCT035 SCT050 AMD LTD TO VIS AND WIND TIL 311600
ハワイ時間31日02-10時:040度から9ノットの風
10-19時:040度から12ノット、突風19ノット

19時-1日02時:040度から10ノットの風

サイパン空港
TAF PGSN 311124Z 3112/0112 08012KT P6SM VCSH SCT018 SCT030
FM010100 08015G22KT P6SM VCSH SCT022 SCT050
マリアナ時間31日22時-1日11時:080度から12ノットの風
11-22時:080度から15ノット、突風22ノット

コメント
この記事をはてなブックマークに追加

5/30-6/1の航空気象通報

2015年05月30日 23時59分21秒 | TAF

羽田空港
TAF RJTT 301105Z 3012/3118 18014KT 9999 FEW030
BECMG 3012/3014 36004KT
BECMG 3022/3024 14008KT
BECMG 3106/3109 02010KT
日本時間30日21時:180度から14ノットの風
21-23時:風が変化
23時-31日07時:360度から4ノットの風
07-09時:風が変化
09-15時:140度から8ノットの風
15-18時:風が変化
18時-1日03時:020度から10ノットの風

静岡空港
TAF RJNS 301106Z 3012/3118 26008KT 9999 FEW020 SCT050
BECMG 3100/3103 16008KT
BECMG 3112/3115 02004KT
日本時間30日21時-31日09時:260度から8ノットの風
09-12時:風が変化
12-21時:160度から8ノットの風
21-24時:風が変化
1日00-03時:020度から4ノットの風

福岡空港
TAF RJFF 301110Z 3012/3118 34006KT 8000 FEW005 SCT010 BKN020
TEMPO 3016/3020 3000 BR FEW005 BKN009 BKN015
BECMG 3112/3115 16003KT
日本時間30日21時-31日21時:340度から6ノットの風
21-24時:風が変化
1日00-03時:160度から3ノットの風

那覇空港
TAF ROAH 301106Z 3012/3118 21010KT 9000 FEW008 BKN020
TEMPO 3015/3021 FEW006 BKN008
BECMG 3020/3022 33008KT
TEMPO 3021/3023 3000 +TSRA FEW006 BKN008 FEW020CB
日本時間30日21時-31日05時:210度から10ノットの風
05-07時:風が変化
07時-1日03時:330度から8ノットの風

但し、31日06-08時の間:ときどき

石垣空港
TAF ROIG 301109Z 3012/3118 20006KT 9999 FEW008 SCT015
BECMG 3106/3109 04005KT
日本時間30日21時-31日15時:200度から6ノットの風
15-18時:風が変化
18時-1日03時:040度から5ノットの風

マウイのカフルイ空港
PHOG 301120Z 3012/3112 04008KT P6SM FEW030 BKN070
FM302000 02015KT P6SM SCT050
FM310500 03008KT P6SM SCT050 AMD LTD TO VIS AND WIND TIL 301600
ハワイ時間30日02-10時:040度から8ノットの風

10-19時:020度から15ノットの風
19時-31日02時:030度から8ノットの風

サイパン空港
TAF PGSN 301120Z 3012/3112 09007KT P6SM VCSH SCT016 SCT050
マリアナ時間30日22時-31日22時:090度から7ノットの風

コメント
この記事をはてなブックマークに追加

5/29-5/31の航空気象通報

2015年05月29日 22時40分56秒 | TAF

5/29-5/31の航空気象通報

羽田空港
TAF RJTT 291105Z 2912/3018 35014KT 9999 FEW010 BKN020
TEMPO 2912/2915 3000 SHRA BR FEW003 BKN006
BECMG 3000/3003 18015KT
BECMG 3012/3015 05003KT
日本時間29日21時-30日09時:350度から14ノットの風
09-12時:風が変化
12-21時:180度から15ノットの風
21-24時:風が変化
31日00-03時:050度から3ノットの風

但し、29日21-24時の間:ときどき

静岡空港
TAF RJNS 291105Z 2912/3018 27005KT 9999 FEW030 SCT060
BECMG 2922/2924 08005KT
BECMG 3003/3006 26014KT
日本時間29日21時-30日07時:270度から5ノットの風
07-09時:風が変化
09-12時:060度から12ノットの風
12-15時:風が変化
15時-31日03時:260度から14ノットの風

福岡空港
TAF RJFF 291122Z 2912/3018 32005KT 9999 FEW040
BECMG 2912/2914 15003KT
BECMG 3000/3003 34005KT
TEMPO 3006/3012 4000 RA BR FEW005 BKN009 BKN015
日本時間29日21時:320度から5ノットの風
21-23時:風が変化
23時-30日09時:150度から3ノットの風
09-12時:風が変化
12時-31日03時:340度から5ノットの風

但し、30日15-21時の間:ときどき

那覇空港
TAF ROAH 291108Z 2912/3018 20006KT 9000 FEW010 BKN020
TEMPO 2912/2924 FEW004 BKN006 BKN015
TEMPO 3015/3018 FEW006 BKN008 BKN015
日本時間29日21時-31日03時:200度から6ノットの風

石垣空港
TAF ROIG 291110Z 2912/3018 22010KT 9999 FEW008 SCT015
日本時間29日21時-31日03時:220度から10ノットの風

マウイのカフルイ空港
PHOG 291120Z 2912/3012 01008KT P6SM SCT022 BKN040
TEMPO 2912/2914 5SM -RA BR SCT012 BKN018
FM292000 01012KT P6SM SCT030 BKN050
FM300400 04008KT P6SM SCT050 AMD LTD TO VIS AND WIND TIL 291600
ハワイ時間29日02-10時:010度から8ノットの風
10-18時:010度から12ノットの風
18時-30日02時:040度から8ノットの風

但し、29日02-04時の間:ときどき

サイパン空港
TAF PGSN 291120Z 2912/3012 15008KT P6SM VCSH SCT014 SCT120
FM300100 10008KT P6SM VCSH SCT020 SCT050
マリアナ時間29日22時-30日11時:150度から8ノットの風
11-22時:100度から8ノットの風

コメント
この記事をはてなブックマークに追加

5/28-5/30の航空気象通報

2015年05月28日 22時43分54秒 | TAF

羽田空港
TAF RJTT 281105Z 2812/2918 12008KT 9999 FEW010 SCT020
BECMG 2814/2816 03010KT
日本時間28日21-23時:120度から8ノットの風
23時-29日01時:風が変化
01時-25日03時:030度から10ノットの風

静岡空港
TAF RJNS 281105Z 2812/2918 36004KT 9999 FEW020
BECMG 2819/2821 06012KT
TEMPO 2900/2909 06015G25KT
BECMG 2912/2915 36004KT
日本時間28日21時-29日04時:360度から8ノットの風
04-06時:風が変化
06-21時:060度から12ノットの風
21-24時:風が変化
30日00-03時:270度から5ノットの風

福岡空港
TAF RJFF 281110Z 2812/2918 15004KT CAVOK
BECMG 2903/2906 36008KT
BECMG 2912/2915 15004KT
日本時間28日21時-29日12時:150度から4ノットの風
12-15時:風が変化
15-21時:360度から8ノットの風
21-24時:風が変化
30日00-03時:150度から4ノットの風

那覇空港
TAF ROAH 281106Z 2812/2918 26006KT 9999 FEW008 SCT015
BECMG 2818/2820 30005KT
BECMG 2900/2903 24010KT
日本時間28日21時-29日03時:260度から6ノットの風
03-05時:風が変化
05-09時:300度から5ノットの風
09-12時:風が変化
12時-30日03時:240度から10ノットの風

石垣空港
TAF ROIG 281108Z 2812/2918 10005KT 9999 FEW015 SCT025
BECMG 2900/2903 19012KT
日本時間28日21時-29日09時:100度から5ノットの風
09-12時:風が変化
12時-30日03時:190度から12ノットの風

マウイのカフルイ空港
PHOG 281120Z 2812/2912 04008KT P6SM OVC050
FM281900 02012KT P6SM BKN050
FM290400 04008KT P6SM BKN050 AMD LTD TO VIS AND WIND TIL 281600
ハワイ時間28日02-09時:040度から8ノットの風
09-18時:020度から12ノットの風
18時-29日02時:040度から8ノットの風

サイパン空港
TAF AMD PGSN 281322Z 2813/2912 11011KT P6SM VCSH FEW016 SCT040 BKN100
TEMPO 2813/2817 5SM SHRA SCT014 BKN025
FM290000 13015KT P6SM VCSH FEW018 SCT040 SCT100
マリアナ時間28日23時-29日10時:110度から11ノットの風

10-22時:130度から15ノットの風

コメント
この記事をはてなブックマークに追加

5/27-5/29の航空気象通報

2015年05月27日 20時44分06秒 | TAF
羽田空港
TAF RJTT 271108Z 2712/2818 10006KT 8000 FEW008 BKN012
BECMG 2715/2717 03008KT
TEMPO 2716/2723 FEW005 BKN008
BECMG 2800/2803 10010KT
BECMG 2803/2806 16012KT
BECMG 2812/2815 02006KT
日本時間27日21-24時:100度から6ノットの風
28日00-02時:風が変化
02-09時:030度から8ノットの風
09-12時:風が変化
12時:100度から10ノットの風
12-15時:風が変化
15-21時:160度から12ノットの風
21-24時:風が変化
29日00-03時:020度から6ノットの風


静岡空港
TAF RJNS 271105Z 2712/2818 36004KT 8000 FEW008 BKN012
TEMPO 2715/2721 4000 BR FEW005 BKN008
BECMG 2720/2722 08006KT
BECMG 2800/2803 14010KT
BECMG 2809/2812 36004KT
日本時間27日21時-28日05時:360度から4ノットの風
05-07時:風が変化
07-09時:080度から6ノットの風
09-12時:風が変化
12-18時:140度から10ノットの風
18-21時:風が変化
21時-29日03時:360度から4ノットの風


福岡空港
TAF RJFF 271105Z 2712/2818 15005KT CAVOK
BECMG 2803/2806 31008KT
BECMG 2812/2815 14005KT
日本時間27日21時-28日12時:150度から5ノットの風
12-15時:風が変化
15-21時:310度から8ノットの風
21-24時:風が変化
29日00-03時:140度から5ノットの風


那覇空港
TAF ROAH 271106Z 2712/2818 14012KT 9999 -SHRA FEW010 BKN020
TEMPO 2712/2715 3000 SHRA FEW008 BKN010 FEW020CB
TEMPO 2715/2721 1500 +TSRA FEW005 BKN008 SCT020CB
BECMG 2800/2803 21008KT
日本時間27日21時-28日09時:140度から12ノットの風
09-12時:風が変化
12時-29日03時:210度から8ノットの風

但し、28日00-06時の間:ときどき

石垣空港
TAF ROIG 271109Z 2712/2818 15006KT 9999 FEW008 SCT015
BECMG 2803/2806 21010KT
日本時間27日21時-28日12時:150度から6ノットの風
12-15時:風が変化
15時-29日03時:210度から10ノットの風


マウイのカフルイ空港
PHOG 271133Z 2712/2812 03005KT P6SM SCT030 BKN050
FM272000 02012KT P6SM FEW030 SCT050
FM280500 06005KT P6SM FEW030 SCT050 AMD LTD TO VIS AND WIND TIL 271600
ハワイ時間27日02-10時:030度から5ノットの風

10-19時:020度から12ノットの風
19時-28日02時:060度から5ノットの風

サイパン空港
TAF PGSN 271120Z 2712/2812 07011KT P6SM VCSH FEW018 SCT050 SCT100
TEMPO 2712/2716 -SHRA SCT016 BKN030
FM271600 10011KT P6SM VCSH FEW018 SCT050 SCT100
マリアナ時間27日22時-28日02時:070度から11ノットの風
02-22時:100度から11ノットの風

但し、27日22時-28日02時の間:ときどき
コメント
この記事をはてなブックマークに追加